createdAt,value
2018-11-29T00:04:01.701Z,11.30
2018-11-29T00:09:07.977Z,15.40
2018-11-29T00:14:11.944Z,12.50
2018-11-29T00:19:15.515Z,15.00
2018-11-29T00:24:19.056Z,13.80
2018-11-29T00:29:22.736Z,11.30
2018-11-29T00:34:26.307Z,11.53
2018-11-29T00:39:29.872Z,10.97
2018-11-29T00:44:33.429Z,11.70
2018-11-29T00:49:38.011Z,11.03
2018-11-29T00:54:41.566Z,10.67
2018-11-29T00:59:45.148Z,11.17
2018-11-29T01:04:49.123Z,11.07
2018-11-29T01:09:52.701Z,11.67
2018-11-29T01:14:56.248Z,10.60
2018-11-29T01:19:59.830Z,11.20
2018-11-29T01:25:03.753Z,11.20
2018-11-29T01:30:13.969Z,10.57
2018-11-29T01:35:18.917Z,10.10
2018-11-29T01:40:23.658Z,10.13
2018-11-29T01:45:27.575Z,10.10
2018-11-29T01:50:31.175Z,10.30
2018-11-29T01:55:35.075Z,9.83
2018-11-29T02:00:38.640Z,10.27
2018-11-29T02:05:42.243Z,9.97
2018-11-29T02:10:51.324Z,10.57
2018-11-29T02:15:56.796Z,10.37
2018-11-29T02:21:00.374Z,10.27
2018-11-29T02:26:05.150Z,10.43
2018-11-29T02:31:11.458Z,11.10
2018-11-29T02:36:15.153Z,11.13
2018-11-29T02:41:19.478Z,10.60
2018-11-29T02:46:23.048Z,10.20
2018-11-29T02:51:26.642Z,11.53
2018-11-29T02:56:30.197Z,10.80
2018-11-29T03:01:33.771Z,11.03
2018-11-29T03:06:37.520Z,10.60
2018-11-29T03:11:44.286Z,11.50
2018-11-29T03:16:48.000Z,11.10
2018-11-29T03:21:51.970Z,11.30
2018-11-29T03:26:55.575Z,10.77
2018-11-29T03:32:00.502Z,10.93
2018-11-29T03:37:04.118Z,10.33
2018-11-29T03:42:07.719Z,11.07
2018-11-29T03:47:13.281Z,10.30
2018-11-29T03:52:17.449Z,10.67
2018-11-29T03:57:21.094Z,10.93
2018-11-29T04:02:25.576Z,11.27
2018-11-29T04:07:29.133Z,11.20
2018-11-29T04:12:34.780Z,12.20
2018-11-29T04:17:41.123Z,9.63
2018-11-29T04:22:44.157Z,11.10
2018-11-29T04:27:47.747Z,10.03
2018-11-29T04:32:53.405Z,10.53
2018-11-29T04:37:56.982Z,10.63
2018-11-29T04:43:00.556Z,10.50
2018-11-29T04:48:09.837Z,10.33
2018-11-29T04:53:09.247Z,9.83
2018-11-29T04:58:12.881Z,10.70
2018-11-29T05:03:16.645Z,9.33
2018-11-29T05:08:20.297Z,10.90
2018-11-29T05:13:24.323Z,10.60
2018-11-29T05:18:27.938Z,10.17
2018-11-29T05:23:31.854Z,11.90
2018-11-29T05:28:37.621Z,11.53
2018-11-29T05:38:52.301Z,12.10
2018-11-29T05:43:55.864Z,12.20
2018-11-29T05:48:59.594Z,11.27
2018-11-29T05:54:04.193Z,10.77
2018-11-29T05:59:07.761Z,11.37
2018-11-29T06:04:14.609Z,10.50
2018-11-29T06:09:18.930Z,10.03
2018-11-29T06:14:24.089Z,10.80
2018-11-29T06:19:28.423Z,10.40
2018-11-29T06:24:32.015Z,10.33
2018-11-29T06:29:35.615Z,10.23
2018-11-29T06:34:39.260Z,10.60
2018-11-29T06:39:42.988Z,11.30
2018-11-29T06:44:46.729Z,11.17
2018-11-29T06:49:50.707Z,10.73
2018-11-29T06:54:55.112Z,10.77
2018-11-29T06:59:59.608Z,11.60
2018-11-29T07:05:04.043Z,10.90
2018-11-29T07:10:09.980Z,10.60
2018-11-29T07:15:14.229Z,11.20
2018-11-29T07:20:17.966Z,11.13
2018-11-29T07:25:21.601Z,12.40
2018-11-29T07:30:25.819Z,11.50
2018-11-29T07:35:29.469Z,10.80
2018-11-29T07:40:33.073Z,11.87
2018-11-29T07:45:36.688Z,11.40
2018-11-29T07:50:40.285Z,13.10
2018-11-29T07:55:43.987Z,11.00
2018-11-29T08:00:47.701Z,11.80
2018-11-29T08:05:51.266Z,12.90
2018-11-29T08:10:55.194Z,11.90
2018-11-29T08:15:58.906Z,12.77
2018-11-29T08:21:04.432Z,12.70
2018-11-29T08:26:08.749Z,12.50
2018-11-29T08:31:13.457Z,12.10
2018-11-29T08:36:17.410Z,12.10
2018-11-29T08:41:20.994Z,11.80
2018-11-29T08:46:25.468Z,12.53
2018-11-29T08:51:29.802Z,12.50
2018-11-29T08:56:33.714Z,12.60
2018-11-29T09:01:37.551Z,12.80
2018-11-29T09:06:41.152Z,14.87
2018-11-29T09:11:45.523Z,16.00
2018-11-29T09:16:49.223Z,16.10
2018-11-29T09:21:52.820Z,15.60
2018-11-29T09:26:56.637Z,14.07
2018-11-29T09:32:00.193Z,13.93
2018-11-29T09:37:03.881Z,14.00
2018-11-29T09:42:07.541Z,13.60
2018-11-29T09:47:11.275Z,12.93
2018-11-29T09:52:14.886Z,13.27
2018-11-29T09:57:18.774Z,13.23
2018-11-29T10:02:23.450Z,12.23
2018-11-29T10:07:27.818Z,12.67
2018-11-29T10:12:32.197Z,12.43
2018-11-29T10:17:35.752Z,12.23
2018-11-29T10:22:41.741Z,12.73
2018-11-29T10:27:48.388Z,12.40
2018-11-29T10:32:54.396Z,12.77
2018-11-29T10:37:58.052Z,13.10
2018-11-29T10:43:01.990Z,13.20
2018-11-29T10:48:08.045Z,12.27
2018-11-29T10:53:11.623Z,11.93
2018-11-29T10:58:15.311Z,11.60
2018-11-29T11:03:19.806Z,12.77
2018-11-29T11:08:23.417Z,10.47
2018-11-29T11:13:27.039Z,11.87
2018-11-29T11:18:30.744Z,11.47
2018-11-29T11:23:34.323Z,10.30
2018-11-29T11:28:38.174Z,12.70
2018-11-29T11:33:41.805Z,11.40
2018-11-29T11:38:46.344Z,13.20
2018-11-29T11:43:50.723Z,11.90
2018-11-29T11:48:55.804Z,12.03
2018-11-29T11:53:59.434Z,12.10
2018-11-29T11:59:03.026Z,12.80
2018-11-29T12:04:06.598Z,12.63
2018-11-29T12:09:10.436Z,11.40
2018-11-29T12:14:14.339Z,11.43
2018-11-29T12:19:18.501Z,11.30
2018-11-29T12:24:22.184Z,11.53
2018-11-29T12:29:26.095Z,10.20
2018-11-29T12:34:29.682Z,11.60
2018-11-29T12:39:33.265Z,12.63
2018-11-29T12:44:36.864Z,11.67
2018-11-29T12:49:40.461Z,11.40
2018-11-29T12:54:44.568Z,11.67
2018-11-29T12:59:48.167Z,11.67
2018-11-29T13:04:51.755Z,12.10
2018-11-29T13:09:55.280Z,13.60
2018-11-29T13:14:59.784Z,13.70
2018-11-29T13:20:03.559Z,13.97
2018-11-29T13:25:15.248Z,13.00
2018-11-29T13:30:20.561Z,12.63
2018-11-29T13:35:33.245Z,13.23
2018-11-29T13:40:36.833Z,12.70
2018-11-29T13:45:40.860Z,13.67
2018-11-29T13:50:45.458Z,12.30
2018-11-29T13:55:49.049Z,12.90
2018-11-29T14:00:52.606Z,12.87
2018-11-29T14:05:56.217Z,12.27
2018-11-29T14:10:59.837Z,13.10
2018-11-29T14:16:03.971Z,13.53
2018-11-29T14:21:07.909Z,12.60
2018-11-29T14:26:11.521Z,13.37
2018-11-29T14:31:15.728Z,13.40
2018-11-29T14:36:20.152Z,13.33
2018-11-29T14:41:23.701Z,12.93
2018-11-29T14:46:27.282Z,12.90
2018-11-29T14:51:31.247Z,13.00
2018-11-29T14:56:34.895Z,12.53
2018-11-29T15:01:38.527Z,13.23
2018-11-29T15:06:42.169Z,14.33
2018-11-29T15:11:45.734Z,13.27
2018-11-29T15:16:49.340Z,13.77
2018-11-29T15:21:53.150Z,14.30
2018-11-29T15:26:56.935Z,15.13
2018-11-29T15:32:01.252Z,14.10
2018-11-29T15:37:04.862Z,14.33
2018-11-29T15:42:08.538Z,15.00
2018-11-29T15:47:12.141Z,15.30
2018-11-29T15:52:15.803Z,13.97
2018-11-29T15:57:19.394Z,15.30
2018-11-29T16:02:23.017Z,14.83
2018-11-29T16:07:26.651Z,13.97
2018-11-29T16:12:30.286Z,14.67
2018-11-29T16:17:33.885Z,14.10
2018-11-29T16:22:37.549Z,13.77
2018-11-29T16:27:41.184Z,14.00
2018-11-29T16:32:44.771Z,14.63
2018-11-29T16:37:48.404Z,13.97
2018-11-29T16:42:52.166Z,13.70
2018-11-29T16:47:56.056Z,15.63
2018-11-29T16:52:59.680Z,15.07
2018-11-29T16:58:05.401Z,14.47
2018-11-29T17:03:10.059Z,15.30
2018-11-29T17:08:13.731Z,13.40
2018-11-29T17:13:18.609Z,14.20
2018-11-29T17:18:22.905Z,15.67
2018-11-29T17:23:26.651Z,15.30
2018-11-29T17:28:30.260Z,14.90
2018-11-29T17:33:33.861Z,13.73
2018-11-29T17:38:37.515Z,14.90
2018-11-29T17:43:41.136Z,15.57
2018-11-29T17:48:45.055Z,15.73
2018-11-29T17:53:53.610Z,14.60
2018-11-29T17:58:57.189Z,13.77
2018-11-29T18:04:00.782Z,14.80
2018-11-29T18:09:08.651Z,14.30
2018-11-29T18:14:12.219Z,15.27
2018-11-29T18:19:15.873Z,17.77
2018-11-29T18:24:19.505Z,18.70
2018-11-29T18:29:23.152Z,15.37
2018-11-29T18:34:27.022Z,15.10
2018-11-29T18:39:30.912Z,17.13
2018-11-29T18:44:34.918Z,19.30
2018-11-29T18:49:38.769Z,16.80
2018-11-29T18:54:42.703Z,14.80
2018-11-29T18:59:46.609Z,14.80
2018-11-29T19:04:50.243Z,15.00
2018-11-29T19:09:54.351Z,15.10
2018-11-29T19:14:58.200Z,16.47
2018-11-29T19:20:02.225Z,17.23
2018-11-29T19:25:08.125Z,16.20
2018-11-29T19:30:15.417Z,15.30
2018-11-29T19:35:19.118Z,15.90
2018-11-29T19:40:23.337Z,16.70
2018-11-29T19:45:27.782Z,15.10
2018-11-29T19:50:32.401Z,14.90
2018-11-29T19:55:36.076Z,13.97
2018-11-29T20:00:39.900Z,14.13
2018-11-29T20:05:43.479Z,14.53
2018-11-29T20:10:47.398Z,15.53
2018-11-29T20:15:52.987Z,17.17
2018-11-29T20:20:56.628Z,16.23
2018-11-29T20:26:00.201Z,20.00
2018-11-29T20:31:03.956Z,16.70
2018-11-29T20:36:08.365Z,15.60
2018-11-29T20:41:11.960Z,14.70
2018-11-29T20:46:15.516Z,14.73
2018-11-29T20:51:19.074Z,14.93
2018-11-29T20:56:22.625Z,15.53
2018-11-29T21:01:28.381Z,15.80
2018-11-29T21:06:31.956Z,15.50
2018-11-29T21:11:35.541Z,15.90
2018-11-29T21:16:39.157Z,14.87
2018-11-29T21:21:46.624Z,14.20
2018-11-29T21:26:50.675Z,14.10
2018-11-29T21:31:56.219Z,13.93
2018-11-29T21:37:00.684Z,14.07
2018-11-29T21:42:04.718Z,14.17
2018-11-29T21:47:09.396Z,14.97
2018-11-29T21:52:12.999Z,13.40
2018-11-29T21:57:16.646Z,14.10
2018-11-29T22:02:20.253Z,13.70
2018-11-29T22:07:23.805Z,14.73
2018-11-29T22:12:27.413Z,14.77
2018-11-29T22:17:31.278Z,14.90
2018-11-29T22:22:34.900Z,13.27
2018-11-29T22:27:38.705Z,14.80
2018-11-29T22:32:42.331Z,14.17
2018-11-29T22:37:46.207Z,12.37
2018-11-29T22:42:49.825Z,12.07
2018-11-29T22:47:53.433Z,12.93
2018-11-29T22:52:57.038Z,13.10
2018-11-29T22:58:01.020Z,12.83
2018-11-29T23:03:04.818Z,12.90
2018-11-29T23:08:08.693Z,13.07
2018-11-29T23:13:12.477Z,12.70
2018-11-29T23:18:16.577Z,13.00
2018-11-29T23:23:20.195Z,13.60
2018-11-29T23:28:24.318Z,12.40
2018-11-29T23:33:27.927Z,11.53
2018-11-29T23:38:31.507Z,11.80
2018-11-29T23:43:35.714Z,12.37
2018-11-29T23:48:40.020Z,11.63
2018-11-29T23:53:43.601Z,11.50
2018-11-29T23:58:47.595Z,11.90
